Time;durP1;ratioP1;P1;durP2;ratioP2;P2;SDS_P1;SDS_P2;PMS_P1;PMS_P2;Temp;Humidity;BMP_temperature;BMP_pressure;BME280_temperature;BME280_humidity;BME280_pressure;Samples;Min_cycle;Max_cycle;Signal;HPM_P1;HPM_P2
2021/03/14 00:02:07;;;;;;;;;;;;;;;26.54;19.91;100719.47;5097802;28;863;-39
2021/03/14 00:04:32;;;;;;;;;;;;;;;26.49;19.68;100721.88;5097826;28;870;-39
2021/03/14 00:06:57;;;;;;;;;;;;;;;26.53;19.40;100709.69;5082715;28;1178;-39
2021/03/14 00:09:23;;;;;;;;;;;;;;;26.43;19.67;100709.06;5077104;28;811;-40
2021/03/14 00:11:48;;;;;;;;;;;;;;;26.46;19.60;100708.75;5088251;28;944;-39
2021/03/14 00:14:13;;;;;;;;;;;;;;;26.37;19.73;100695.31;5096993;28;775;-41
2021/03/14 00:16:38;;;;;;;;;;;;;;;26.54;19.51;100695.19;5097612;28;1901;-41
2021/03/14 00:19:04;;;;;;;;;;;;;;;26.49;19.66;100682.22;5097055;28;822;-41
2021/03/14 00:21:29;;;;;;;;;;;;;;;26.55;19.32;100682.53;5078857;28;892;-41
2021/03/14 00:23:55;;;;;;;;;;;;;;;26.49;19.47;100684.91;5097303;28;786;-40
2021/03/14 00:26:20;;;;;;;;;;;;;;;26.42;19.77;100681.28;5089192;28;994;-41
2021/03/14 00:28:45;;;;;;;;;;;;;;;26.48;19.60;100687.78;5075940;28;855;-40
2021/03/14 00:31:11;;;;;;;;;;;;;;;26.50;19.30;100683.91;5077164;28;1254;-41
2021/03/14 00:33:36;;;;;;;;;;;;;;;26.46;19.42;100684.47;5076433;28;863;-41
2021/03/14 00:36:01;;;;;;;;;;;;;;;26.36;19.60;100679.31;5076783;28;787;-42
2021/03/14 00:38:26;;;;;;;;;;;;;;;26.33;19.62;100669.69;5077019;28;1913;-41
2021/03/14 00:40:52;;;;;;;;;;;;;;;26.50;19.58;100674.97;5079930;28;964;-41
2021/03/14 00:43:17;;;;;;;;;;;;;;;26.54;19.34;100673.59;5096613;28;803;-41
2021/03/14 00:45:42;;;;;;;;;;;;;;;26.37;19.38;100675.59;5096910;28;751;-41
2021/03/14 00:48:08;;;;;;;;;;;;;;;26.33;19.54;100671.56;5096716;28;767;-41
2021/03/14 00:50:36;;;;;;;;;;;;;;;26.39;19.35;100665.47;5096906;28;740;-41
2021/03/14 00:53:02;;;;;;;;;;;;;;;26.46;19.23;100673.69;5096551;28;901;-41
2021/03/14 00:55:27;;;;;;;;;;;;;;;26.43;19.17;100661.38;5096529;28;958;-40
2021/03/14 00:57:52;;;;;;;;;;;;;;;26.44;19.32;100664.91;5076083;28;1956;-39
2021/03/14 01:00:18;;;;;;;;;;;;;;;26.35;19.41;100659.59;5076652;28;830;-39
2021/03/14 01:02:43;;;;;;;;;;;;;;;26.34;19.45;100660.59;5076209;28;765;-39
2021/03/14 01:05:09;;;;;;;;;;;;;;;26.41;19.49;100658.84;5076231;28;736;-40
2021/03/14 01:07:34;;;;;;;;;;;;;;;26.43;19.29;100647.03;5095745;28;1198;-40
2021/03/14 01:09:59;;;;;;;;;;;;;;;26.36;19.50;100644.25;5096727;28;811;-40
2021/03/14 01:12:25;;;;;;;;;;;;;;;26.28;19.64;100654.03;5079606;28;955;-40
2021/03/14 01:14:50;;;;;;;;;;;;;;;26.21;19.78;100646.84;5076023;28;544;-40
2021/03/14 01:17:15;;;;;;;;;;;;;;;26.35;19.48;100650.66;5076473;28;1902;-40
2021/03/14 01:19:41;;;;;;;;;;;;;;;26.34;19.26;100648.97;5076275;28;788;-41
2021/03/14 01:22:06;;;;;;;;;;;;;;;26.34;19.46;100651.69;5075909;28;846;-40
2021/03/14 01:24:31;;;;;;;;;;;;;;;26.29;19.66;100654.88;5076394;28;787;-40
2021/03/14 01:26:58;;;;;;;;;;;;;;;26.30;19.45;100651.16;5088433;28;955;-40
2021/03/14 01:29:23;;;;;;;;;;;;;;;26.42;19.35;100646.22;5096402;28;783;-41
2021/03/14 01:31:48;;;;;;;;;;;;;;;26.26;19.40;100645.28;5096496;28;1099;-40
2021/03/14 01:34:13;;;;;;;;;;;;;;;26.22;19.57;100645.81;5096085;28;802;-40
2021/03/14 01:36:39;;;;;;;;;;;;;;;26.24;19.67;100647.31;5096575;28;1913;-39
2021/03/14 01:39:04;;;;;;;;;;;;;;;26.26;19.65;100642.59;5097151;28;832;-40
2021/03/14 01:41:29;;;;;;;;;;;;;;;26.26;19.38;100647.13;5090184;28;978;-40
2021/03/14 01:43:55;;;;;;;;;;;;;;;26.27;19.27;100646.13;5079949;28;831;-39
2021/03/14 01:46:21;;;;;;;;;;;;;;;26.16;19.38;100650.06;5079972;28;792;-41
2021/03/14 01:48:46;;;;;;;;;;;;;;;26.07;19.74;100641.22;5079201;28;803;-41
2021/03/14 01:51:12;;;;;;;;;;;;;;;26.18;19.58;100645.34;5079881;28;859;-41
2021/03/14 01:53:37;;;;;;;;;;;;;;;26.27;19.40;100646.13;5079664;28;768;-41
2021/03/14 01:56:02;;;;;;;;;;;;;;;26.29;19.42;100647.63;5083970;28;955;-40
2021/03/14 01:58:28;;;;;;;;;;;;;;;26.19;19.48;100648.88;5081514;28;1965;-41
2021/03/14 02:00:53;;;;;;;;;;;;;;;26.27;19.32;100646.97;5100257;28;802;-40
2021/03/14 02:03:19;;;;;;;;;;;;;;;26.23;19.57;100642.09;5100042;28;727;-39
2021/03/14 02:05:44;;;;;;;;;;;;;;;26.22;19.12;100640.44;5095083;28;1091;-40
2021/03/14 02:08:10;;;;;;;;;;;;;;;26.18;19.46;100642.66;5060861;28;1057;-41
2021/03/14 02:10:36;;;;;;;;;;;;;;;26.16;19.37;100637.44;5079178;28;959;-40
2021/03/14 02:13:05;;;;;;;;;;;;;;;26.15;19.54;100638.47;5078706;28;1505;-39
2021/03/14 02:15:30;;;;;;;;;;;;;;;26.28;19.21;100634.31;5060796;28;1206;-39
2021/03/14 02:17:56;;;;;;;;;;;;;;;26.27;19.37;100638.03;5079219;28;1902;-39
2021/03/14 02:20:23;;;;;;;;;;;;;;;26.14;19.53;100635.94;5061147;28;786;-40
2021/03/14 02:22:48;;;;;;;;;;;;;;;26.17;19.75;100636.41;5079021;28;1227;-40
2021/03/14 02:25:16;;;;;;;;;;;;;;;26.17;19.60;100635.59;5061416;28;715;-40
2021/03/14 02:27:42;;;;;;;;;;;;;;;26.34;19.41;100639.00;5097458;28;1010;-40
2021/03/14 02:30:07;;;;;;;;;;;;;;;26.27;19.26;100633.50;5081014;28;1244;-40
2021/03/14 02:32:32;;;;;;;;;;;;;;;26.15;19.26;100643.00;5099559;28;958;-40
2021/03/14 02:34:59;;;;;;;;;;;;;;;26.04;19.72;100637.00;5081261;28;736;-39
2021/03/14 02:37:24;;;;;;;;;;;;;;;26.15;19.60;100633.06;5080974;28;1971;-39
2021/03/14 02:39:51;;;;;;;;;;;;;;;26.28;19.57;100628.91;5081041;28;759;-41
2021/03/14 02:42:16;;;;;;;;;;;;;;;26.25;19.30;100623.91;5065110;28;955;-41
2021/03/14 02:44:42;;;;;;;;;;;;;;;26.02;19.60;100625.59;5060880;28;1396;-41
2021/03/14 02:47:07;;;;;;;;;;;;;;;25.98;19.79;100628.78;5078801;28;744;-41
2021/03/14 02:49:33;;;;;;;;;;;;;;;26.06;20.03;100623.34;5078009;28;768;-40
2021/03/14 02:51:58;;;;;;;;;;;;;;;26.03;20.15;100626.41;5078542;28;764;-40
2021/03/14 02:54:24;;;;;;;;;;;;;;;26.22;19.84;100632.34;5060413;28;883;-40
2021/03/14 02:56:49;;;;;;;;;;;;;;;26.42;19.93;100640.81;5089428;28;1959;-40
2021/03/14 02:59:15;;;;;;;;;;;;;;;26.63;19.73;100632.03;5080374;28;891;-39
2021/03/14 03:01:42;;;;;;;;;;;;;;;26.83;19.15;100631.50;5098821;28;738;-39
2021/03/14 03:04:07;;;;;;;;;;;;;;;27.14;18.87;100637.81;5080055;28;815;-40
2021/03/14 03:06:33;;;;;;;;;;;;;;;27.34;18.76;100637.25;5069796;28;1056;-40
2021/03/14 03:08:58;;;;;;;;;;;;;;;27.09;18.58;100637.53;5078299;28;780;-40
2021/03/14 03:11:23;;;;;;;;;;;;;;;26.70;18.97;100639.41;5059568;28;952;-41
2021/03/14 03:13:50;;;;;;;;;;;;;;;26.99;18.83;100635.06;5060911;28;829;-38
2021/03/14 03:16:16;;;;;;;;;;;;;;;26.82;18.93;100639.78;5078214;28;732;-39
2021/03/14 03:18:42;;;;;;;;;;;;;;;26.58;18.87;100639.84;5077294;28;1967;-40
2021/03/14 03:21:08;;;;;;;;;;;;;;;26.56;19.17;100635.66;5078310;28;829;-40
2021/03/14 03:23:34;;;;;;;;;;;;;;;26.52;19.18;100636.03;5059866;28;867;-39
2021/03/14 03:25:59;;;;;;;;;;;;;;;26.53;18.87;100629.59;5081699;28;999;-39
2021/03/14 03:28:25;;;;;;;;;;;;;;;26.58;19.11;100630.91;5089604;28;1261;-39
2021/03/14 03:30:50;;;;;;;;;;;;;;;27.04;18.67;100624.59;5088252;28;1251;-40
2021/03/14 03:33:15;;;;;;;;;;;;;;;27.24;18.53;100635.66;5086867;28;1221;-39
2021/03/14 03:35:41;;;;;;;;;;;;;;;26.89;18.44;100629.94;5087064;28;1249;-40
2021/03/14 03:38:06;;;;;;;;;;;;;;;26.78;18.74;100634.78;5088332;28;1921;-40
2021/03/14 03:40:32;;;;;;;;;;;;;;;26.66;18.73;100625.44;5085119;28;1256;-40
2021/03/14 03:42:57;;;;;;;;;;;;;;;26.70;18.84;100631.31;5087324;28;1187;-39
2021/03/14 03:45:22;;;;;;;;;;;;;;;26.57;18.81;100627.38;5086291;28;1161;-40
2021/03/14 03:47:48;;;;;;;;;;;;;;;26.36;19.00;100625.38;5087361;28;1509;-40
2021/03/14 03:50:14;;;;;;;;;;;;;;;26.48;19.01;100620.34;5068913;28;1332;-39
2021/03/14 03:52:40;;;;;;;;;;;;;;;26.59;19.02;100621.81;5086877;28;1209;-39
2021/03/14 03:55:06;;;;;;;;;;;;;;;26.52;18.91;100619.84;5077005;28;797;-41
2021/03/14 03:57:32;;;;;;;;;;;;;;;25.86;19.38;100617.59;5077111;28;1906;-36
2021/03/14 03:59:57;;;;;;;;;;;;;;;26.16;19.07;100623.09;5077174;28;865;-36
2021/03/14 04:02:22;;;;;;;;;;;;;;;24.85;20.10;100613.53;5058115;28;914;-35
2021/03/14 04:04:47;;;;;;;;;;;;;;;23.28;21.91;100608.53;5058802;28;955;-34
2021/03/14 04:07:13;;;;;;;;;;;;;;;22.66;22.42;100601.47;5092157;28;1107;-35
2021/03/14 04:09:38;;;;;;;;;;;;;;;22.78;22.14;100613.63;5117614;28;814;-39
2021/03/14 04:12:04;;;;;;;;;;;;;;;22.56;22.35;100602.38;5085630;28;1471;-41
2021/03/14 04:14:30;;;;;;;;;;;;;;;22.13;22.98;100605.72;5079205;28;760;-40
2021/03/14 04:16:55;;;;;;;;;;;;;;;22.53;22.34;100596.47;5096751;28;1909;-37
2021/03/14 04:19:21;;;;;;;;;;;;;;;22.31;22.14;100606.69;5097559;28;747;-38
2021/03/14 04:21:49;;;;;;;;;;;;;;;21.92;22.83;100600.63;5097153;28;815;-41
2021/03/14 04:24:16;;;;;;;;;;;;;;;21.01;24.53;100594.97;5096879;28;775;-41
2021/03/14 04:26:41;;;;;;;;;;;;;;;21.06;24.25;100589.19;5068860;28;999;-40
2021/03/14 04:29:06;;;;;;;;;;;;;;;21.10;24.27;100588.78;5058862;28;796;-42
2021/03/14 04:31:32;;;;;;;;;;;;;;;20.35;25.74;100589.44;5058603;28;1791;-42
2021/03/14 04:33:57;;;;;;;;;;;;;;;19.67;26.77;100586.50;5076587;28;818;-38
2021/03/14 04:36:22;;;;;;;;;;;;;;;20.19;26.25;100577.50;5059037;28;830;-41
2021/03/14 04:38:48;;;;;;;;;;;;;;;20.64;25.70;100569.84;5058603;28;1972;-40
2021/03/14 04:41:13;;;;;;;;;;;;;;;20.49;25.44;100575.66;5065149;28;1003;-40
2021/03/14 04:43:40;;;;;;;;;;;;;;;20.54;25.49;100570.72;5096940;28;814;-39
2021/03/14 04:46:05;;;;;;;;;;;;;;;20.83;25.09;100568.13;5079026;28;780;-38
2021/03/14 04:48:30;;;;;;;;;;;;;;;21.16;24.57;100565.94;5096722;28;736;-38
2021/03/14 04:50:56;;;;;;;;;;;;;;;21.09;24.69;100575.53;5097026;28;788;-42
2021/03/14 04:53:21;;;;;;;;;;;;;;;20.96;25.00;100576.72;5097221;28;952;-40
2021/03/14 04:55:47;;;;;;;;;;;;;;;20.73;24.38;100566.34;5093617;28;962;-43
2021/03/14 04:58:13;;;;;;;;;;;;;;;21.16;23.54;100577.47;5076430;28;1906;-40
2021/03/14 05:00:39;;;;;;;;;;;;;;;21.27;23.50;100576.44;5076821;28;814;-41
2021/03/14 05:03:04;;;;;;;;;;;;;;;21.06;23.91;100574.00;5076158;28;815;-40
2021/03/14 05:05:30;;;;;;;;;;;;;;;20.90;24.46;100574.59;5060565;28;1453;-39
2021/03/14 05:07:55;;;;;;;;;;;;;;;22.54;23.01;100571.38;5078442;28;854;-42
2021/03/14 05:10:21;;;;;;;;;;;;;;;23.79;21.53;100580.06;5095080;28;931;-36
2021/03/14 05:12:47;;;;;;;;;;;;;;;24.20;21.47;100576.59;5095984;28;1069;-36
2021/03/14 05:15:13;;;;;;;;;;;;;;;24.84;20.95;100575.03;5082790;28;764;-36
2021/03/14 05:17:38;;;;;;;;;;;;;;;25.22;20.65;100571.75;5100632;28;1951;-37
2021/03/14 05:20:05;;;;;;;;;;;;;;;25.44;20.41;100575.50;5100688;28;805;-36
2021/03/14 05:22:30;;;;;;;;;;;;;;;24.92;21.34;100576.91;5082624;28;861;-37
2021/03/14 05:24:56;;;;;;;;;;;;;;;24.69;21.70;100570.34;5081724;28;820;-35
2021/03/14 05:27:21;;;;;;;;;;;;;;;24.97;21.36;100571.00;5066529;28;970;-36
2021/03/14 05:29:46;;;;;;;;;;;;;;;25.63;20.82;100577.97;5062173;28;911;-46
2021/03/14 05:32:11;;;;;;;;;;;;;;;25.90;20.64;100586.56;5079488;28;1334;-36
2021/03/14 05:34:37;;;;;;;;;;;;;;;26.15;20.54;100587.25;5093287;28;888;-37
2021/03/14 05:37:02;;;;;;;;;;;;;;;26.27;20.59;100587.66;5099633;28;1910;-37
2021/03/14 05:39:27;;;;;;;;;;;;;;;25.00;22.04;100582.25;5099886;28;755;-37
2021/03/14 05:41:53;;;;;;;;;;;;;;;24.73;22.46;100587.00;5088006;28;947;-38
2021/03/14 05:44:18;;;;;;;;;;;;;;;24.98;22.36;100586.13;5079975;28;766;-37
2021/03/14 05:46:43;;;;;;;;;;;;;;;25.00;22.39;100587.63;5079284;28;822;-36
2021/03/14 05:49:09;;;;;;;;;;;;;;;25.09;22.52;100583.06;5079748;28;747;-39
2021/03/14 05:51:35;;;;;;;;;;;;;;;24.66;22.92;100586.84;5079676;28;748;-39
2021/03/14 05:54:01;;;;;;;;;;;;;;;24.80;22.89;100588.00;5079309;28;1019;-39
2021/03/14 05:56:27;;;;;;;;;;;;;;;24.81;22.89;100588.81;5087453;28;983;-46
2021/03/14 05:58:53;;;;;;;;;;;;;;;24.97;22.79;100577.22;5099322;28;1910;-40
2021/03/14 06:01:19;;;;;;;;;;;;;;;24.74;23.09;100585.16;5099110;28;814;-39
2021/03/14 06:03:45;;;;;;;;;;;;;;;24.62;23.33;100580.13;5095100;28;840;-39
2021/03/14 06:06:11;;;;;;;;;;;;;;;24.76;23.25;100575.03;5072526;28;1166;-39
2021/03/14 06:08:37;;;;;;;;;;;;;;;24.81;23.19;100580.75;5099076;28;825;-40
2021/03/14 06:11:06;;;;;;;;;;;;;;;24.83;23.23;100584.09;5094299;28;991;-39
2021/03/14 06:13:32;;;;;;;;;;;;;;;24.78;23.32;100581.94;5083686;28;819;-40
2021/03/14 06:15:57;;;;;;;;;;;;;;;24.85;23.25;100582.09;5092774;28;771;-40
2021/03/14 06:18:23;;;;;;;;;;;;;;;25.00;23.21;100581.41;5099108;28;1902;-40
2021/03/14 06:20:48;;;;;;;;;;;;;;;24.98;23.15;100570.81;5097839;28;792;-41
2021/03/14 06:23:14;;;;;;;;;;;;;;;24.97;23.21;100577.22;5099193;28;783;-39
2021/03/14 06:25:40;;;;;;;;;;;;;;;25.02;23.17;100566.78;5096244;28;958;-40
2021/03/14 06:28:06;;;;;;;;;;;;;;;25.34;22.88;100571.38;5078473;28;752;-45
2021/03/14 06:30:34;;;;;;;;;;;;;;;25.33;22.64;100578.59;5077972;28;1300;-40
2021/03/14 06:33:00;;;;;;;;;;;;;;;25.00;23.25;100574.19;5078799;28;784;-40
2021/03/14 06:35:25;;;;;;;;;;;;;;;24.98;23.38;100569.97;5078498;28;798;-40
2021/03/14 06:37:51;;;;;;;;;;;;;;;25.12;23.15;100571.13;5060033;28;1918;-42
2021/03/14 06:40:16;;;;;;;;;;;;;;;25.03;23.39;100567.59;5078670;28;784;-40
2021/03/14 06:42:41;;;;;;;;;;;;;;;25.10;23.31;100573.97;5096914;28;975;-40
2021/03/14 06:45:11;;;;;;;;;;;;;;;25.12;23.27;100566.59;5098625;28;743;-42
2021/03/14 06:47:40;;;;;;;;;;;;;;;25.19;23.31;100575.63;5097376;28;1342;-47
2021/03/14 06:50:06;;;;;;;;;;;;;;;24.92;23.76;100580.41;5098514;28;843;-39
2021/03/14 06:52:31;;;;;;;;;;;;;;;25.18;23.44;100568.56;5098504;28;756;-40
2021/03/14 06:54:56;;;;;;;;;;;;;;;25.53;23.04;100567.38;5091943;28;760;-43
2021/03/14 06:57:22;;;;;;;;;;;;;;;25.63;22.86;100570.75;5093913;28;1909;-39
2021/03/14 06:59:48;;;;;;;;;;;;;;;25.68;22.96;100568.34;5098070;28;791;-43
2021/03/14 07:02:14;;;;;;;;;;;;;;;25.67;23.04;100566.66;5098207;28;738;-37
2021/03/14 07:04:46;;;;;;;;;;;;;;;25.40;23.40;100568.81;5098385;28;728;-47
2021/03/14 07:07:15;;;;;;;;;;;;;;;25.24;23.61;100574.28;5081307;28;1205;-37
2021/03/14 07:09:40;;;;;;;;;;;;;;;25.07;23.66;100564.38;5077702;28;740;-41
2021/03/14 07:12:15;;;;;;;;;;;;;;;24.98;23.94;100567.28;5077697;28;951;-38
2021/03/14 07:14:40;;;;;;;;;;;;;;;25.15;23.69;100565.38;5077525;28;790;-44
2021/03/14 07:17:06;;;;;;;;;;;;;;;24.97;24.12;100561.09;5077795;28;1910;-38
2021/03/14 07:19:31;;;;;;;;;;;;;;;24.97;24.22;100561.09;5059893;28;1119;-40
2021/03/14 07:22:06;;;;;;;;;;;;;;;25.17;23.91;100557.97;5077812;28;761;-45
2021/03/14 07:24:44;;;;;;;;;;;;;;;25.05;23.91;100558.34;5077471;28;736;-45
2021/03/14 07:27:09;;;;;;;;;;;;;;;25.02;23.99;100555.16;5091530;28;960;-39
2021/03/14 07:29:35;;;;;;;;;;;;;;;25.14;23.99;100548.38;5097320;28;752;-39
2021/03/14 07:32:00;;;;;;;;;;;;;;;25.37;23.76;100544.94;5097552;28;1116;-39
2021/03/14 07:34:26;;;;;;;;;;;;;;;25.42;23.68;100541.72;5097988;28;810;-34
2021/03/14 07:36:51;;;;;;;;;;;;;;;25.54;23.40;100540.28;5088115;28;1949;-38
2021/03/14 07:39:16;;;;;;;;;;;;;;;25.59;23.51;100530.84;5090376;28;835;-39
2021/03/14 07:41:42;;;;;;;;;;;;;;;25.52;23.55;100530.72;5087337;28;943;-38
2021/03/14 07:44:08;;;;;;;;;;;;;;;25.48;23.45;100535.59;5076704;28;827;-36
2021/03/14 07:46:33;;;;;;;;;;;;;;;25.50;23.52;100532.72;5077513;28;793;-35
2021/03/14 07:48:59;;;;;;;;;;;;;;;25.55;23.46;100539.28;5077230;28;728;-37
2021/03/14 07:51:24;;;;;;;;;;;;;;;25.51;23.61;100534.41;5077168;28;735;-37
2021/03/14 07:53:51;;;;;;;;;;;;;;;25.41;23.81;100529.25;5059242;28;993;-42
2021/03/14 07:56:16;;;;;;;;;;;;;;;25.49;23.72;100523.81;5066175;28;975;-43
2021/03/14 07:58:42;;;;;;;;;;;;;;;25.49;23.73;100529.19;5096865;28;1969;-37
2021/03/14 08:01:26;;;;;;;;;;;;;;;25.25;24.03;100525.63;5098945;28;924;-36
2021/03/14 08:03:52;;;;;;;;;;;;;;;25.28;24.02;100533.34;5096364;28;797;-37
2021/03/14 08:06:17;;;;;;;;;;;;;;;25.53;23.84;100532.38;5097048;28;762;-36
2021/03/14 08:08:43;;;;;;;;;;;;;;;25.40;23.81;100519.50;5096888;28;815;-36
2021/03/14 08:11:21;;;;;;;;;;;;;;;25.37;23.89;100530.63;5091058;28;947;-35
2021/03/14 08:13:46;;;;;;;;;;;;;;;25.41;23.87;100522.00;5076230;28;811;-35
2021/03/14 08:16:13;;;;;;;;;;;;;;;25.61;23.76;100523.44;5076917;28;838;-36
2021/03/14 08:18:38;;;;;;;;;;;;;;;25.46;23.81;100528.75;5076119;28;1901;-36
2021/03/14 08:21:04;;;;;;;;;;;;;;;25.53;23.77;100527.00;5076287;28;760;-35
2021/03/14 08:23:39;;;;;;;;;;;;;;;25.42;23.90;100517.47;5076792;28;743;-35
2021/03/14 08:26:14;;;;;;;;;;;;;;;25.61;23.70;100521.56;5081338;28;966;-36
2021/03/14 08:28:39;;;;;;;;;;;;;;;25.71;23.65;100521.34;5096303;28;896;-35
2021/03/14 08:31:05;;;;;;;;;;;;;;;25.70;23.71;100510.75;5087188;28;1125;-36
2021/03/14 08:33:38;;;;;;;;;;;;;;;25.72;23.61;100514.97;5096972;28;829;-35
2021/03/14 08:36:04;;;;;;;;;;;;;;;25.77;23.59;100509.03;5096411;28;803;-37
2021/03/14 08:38:42;;;;;;;;;;;;;;;25.91;23.45;100507.38;5096245;28;1909;-37
2021/03/14 08:41:23;;;;;;;;;;;;;;;25.62;23.81;100501.69;5090635;28;1057;-37
2021/03/14 08:43:59;;;;;;;;;;;;;;;25.76;23.66;100501.94;5076128;28;803;-36
2021/03/14 08:46:43;;;;;;;;;;;;;;;25.80;23.64;100501.44;5076533;28;821;-36
2021/03/14 08:49:08;;;;;;;;;;;;;;;25.69;23.71;100493.78;5075953;28;789;-35
2021/03/14 08:51:35;;;;;;;;;;;;;;;25.56;23.99;100489.78;5057958;28;875;-35
2021/03/14 08:54:00;;;;;;;;;;;;;;;25.72;23.80;100488.03;5076578;28;803;-35
2021/03/14 08:56:25;;;;;;;;;;;;;;;25.68;23.83;100487.53;5083743;28;958;-36
2021/03/14 08:59:09;;;;;;;;;;;;;;;25.82;23.70;100486.94;5096109;28;1968;-38
2021/03/14 09:01:35;;;;;;;;;;;;;;;25.67;23.88;100479.63;5096620;28;692;-37
2021/03/14 09:04:13;;;;;;;;;;;;;;;25.76;23.72;100473.16;5097261;28;736;-36
2021/03/14 09:06:38;;;;;;;;;;;;;;;25.65;23.86;100466.34;5094063;28;931;-39
2021/03/14 09:09:07;;;;;;;;;;;;;;;25.60;24.07;100463.31;5101654;28;843;-35
2021/03/14 09:11:35;;;;;;;;;;;;;;;25.92;23.90;100465.97;5086600;28;812;-40
2021/03/14 09:14:17;;;;;;;;;;;;;;;26.03;23.63;100452.03;5075420;28;839;-36
2021/03/14 09:16:42;;;;;;;;;;;;;;;25.98;23.66;100456.28;5075640;28;943;-36
2021/03/14 09:19:08;;;;;;;;;;;;;;;25.97;23.68;100454.63;5075613;28;1898;-37
2021/03/14 09:21:48;;;;;;;;;;;;;;;25.87;23.78;100450.34;5075676;28;803;-36
2021/03/14 09:24:26;;;;;;;;;;;;;;;25.88;23.82;100441.22;5075949;28;797;-37
2021/03/14 09:26:55;;;;;;;;;;;;;;;25.86;23.77;100442.44;5087754;28;1002;-36
2021/03/14 09:29:37;;;;;;;;;;;;;;;25.89;23.80;100437.50;5095633;28;756;-41
2021/03/14 09:32:03;;;;;;;;;;;;;;;25.87;23.75;100434.19;5096086;28;1186;-37
2021/03/14 09:34:30;;;;;;;;;;;;;;;25.88;23.79;100433.16;5099304;28;859;-36
2021/03/14 09:36:55;;;;;;;;;;;;;;;25.91;23.79;100438.16;5095141;28;1967;-38
2021/03/14 09:39:22;;;;;;;;;;;;;;;25.95;23.70;100435.94;5095561;28;839;-36
2021/03/14 09:41:47;;;;;;;;;;;;;;;25.91;23.95;100430.09;5084518;28;955;-39
2021/03/14 09:44:14;;;;;;;;;;;;;;;26.03;23.75;100435.03;5075272;28;803;-35
2021/03/14 09:46:39;;;;;;;;;;;;;;;25.88;23.90;100432.31;5075978;28;806;-36
2021/03/14 09:49:11;;;;;;;;;;;;;;;25.90;24.00;100427.56;5074155;28;1238;-35
2021/03/14 09:51:37;;;;;;;;;;;;;;;26.04;23.78;100418.66;5075141;28;796;-43
2021/03/14 09:54:08;;;;;;;;;;;;;;;25.92;23.80;100418.28;5075785;28;794;-40
2021/03/14 09:56:33;;;;;;;;;;;;;;;25.96;23.68;100415.25;5083985;28;907;-34
2021/03/14 09:59:05;;;;;;;;;;;;;;;26.01;24.07;100421.75;5095616;28;1959;-36
2021/03/14 10:01:32;;;;;;;;;;;;;;;25.96;24.07;100418.75;5099021;28;799;-36
2021/03/14 10:03:58;;;;;;;;;;;;;;;25.97;24.12;100415.06;5099055;28;868;-36
2021/03/14 10:06:23;;;;;;;;;;;;;;;26.02;24.05;100407.25;5099103;28;771;-35
2021/03/14 10:08:48;;;;;;;;;;;;;;;25.97;24.02;100403.44;5099429;28;814;-36
2021/03/14 10:11:15;;;;;;;;;;;;;;;25.92;24.11;100399.41;5095370;28;947;-35
2021/03/14 10:13:43;;;;;;;;;;;;;;;26.07;23.87;100401.31;5099063;28;825;-36
2021/03/14 10:16:13;;;;;;;;;;;;;;;26.18;23.96;100402.69;5081395;28;940;-36
2021/03/14 10:18:38;;;;;;;;;;;;;;;26.08;24.13;100394.03;5099150;28;1906;-36
2021/03/14 10:21:33;;;;;;;;;;;;;;;26.11;24.03;100386.44;5098886;28;775;-37
2021/03/14 10:24:25;;;;;;;;;;;;;;;26.22;23.93;100385.16;5081180;28;1335;-36
2021/03/14 10:26:50;;;;;;;;;;;;;;;25.92;24.33;100385.13;5082758;28;1523;-36
2021/03/14 10:29:16;;;;;;;;;;;;;;;26.01;24.22;100375.91;5078775;28;748;-38
2021/03/14 10:31:41;;;;;;;;;;;;;;;26.12;23.99;100374.66;5078631;28;1205;-36
2021/03/14 10:34:08;;;;;;;;;;;;;;;26.35;23.90;100376.44;5078348;28;871;-36
2021/03/14 10:36:33;;;;;;;;;;;;;;;26.33;24.00;100373.06;5061056;28;836;-36
2021/03/14 10:38:59;;;;;;;;;;;;;;;26.53;23.52;100376.03;5078436;28;1913;-35
2021/03/14 10:41:24;;;;;;;;;;;;;;;26.57;23.85;100363.00;5085859;28;1029;-35
2021/03/14 10:43:52;;;;;;;;;;;;;;;26.49;23.72;100353.16;5098703;28;826;-36
2021/03/14 10:46:36;;;;;;;;;;;;;;;26.47;23.67;100348.97;5098561;28;839;-36
2021/03/14 10:49:08;;;;;;;;;;;;;;;26.27;23.95;100353.06;5098375;28;756;-36
2021/03/14 10:51:37;;;;;;;;;;;;;;;26.34;23.98;100349.66;5098567;28;779;-36
2021/03/14 10:54:03;;;;;;;;;;;;;;;26.40;23.96;100346.19;5098473;28;812;-35
2021/03/14 10:56:35;;;;;;;;;;;;;;;26.29;24.13;100339.41;5089760;28;1014;-35
2021/03/14 10:59:01;;;;;;;;;;;;;;;26.37;24.13;100344.72;5078274;28;1957;-35
2021/03/14 11:01:31;;;;;;;;;;;;;;;26.33;23.97;100331.78;5078374;28;803;-34
2021/03/14 11:04:03;;;;;;;;;;;;;;;26.48;23.75;100337.16;5078094;28;848;-35
2021/03/14 11:06:28;;;;;;;;;;;;;;;26.44;23.99;100325.94;5077620;28;903;-35
2021/03/14 11:09:03;;;;;;;;;;;;;;;26.43;24.09;100320.69;5077889;28;822;-34
2021/03/14 11:11:55;;;;;;;;;;;;;;;26.33;24.09;100313.75;5067444;28;1201;-35
2021/03/14 11:14:23;;;;;;;;;;;;;;;26.57;23.68;100316.31;5093883;28;1744;-39
2021/03/14 11:17:05;;;;;;;;;;;;;;;26.55;23.63;100313.81;5098078;28;738;-38
2021/03/14 11:19:30;;;;;;;;;;;;;;;26.70;23.46;100311.06;5097829;28;851;-43
2021/03/14 11:21:55;;;;;;;;;;;;;;;26.71;23.77;100307.34;5097862;28;799;-41
2021/03/14 11:24:20;;;;;;;;;;;;;;;26.73;23.51;100296.34;5098267;28;787;-39
2021/03/14 11:26:46;;;;;;;;;;;;;;;26.68;23.64;100299.63;5086547;28;1002;-41
2021/03/14 11:29:11;;;;;;;;;;;;;;;26.63;23.63;100297.50;5077335;28;851;-43
2021/03/14 11:31:36;;;;;;;;;;;;;;;26.70;23.72;100294.88;5077816;28;1589;-44
2021/03/14 11:34:02;;;;;;;;;;;;;;;26.61;23.51;100293.34;5077255;28;830;-43
2021/03/14 11:36:27;;;;;;;;;;;;;;;26.66;23.53;100290.88;5077218;28;784;-39
2021/03/14 11:38:53;;;;;;;;;;;;;;;26.72;23.83;100286.59;5076859;28;1910;-41
2021/03/14 11:41:18;;;;;;;;;;;;;;;26.69;23.92;100287.81;5084124;28;986;-40
2021/03/14 11:43:43;;;;;;;;;;;;;;;26.73;23.56;100272.06;5097488;28;960;-39
2021/03/14 11:46:09;;;;;;;;;;;;;;;26.83;23.39;100277.97;5097418;28;858;-39
2021/03/14 11:48:34;;;;;;;;;;;;;;;26.81;23.61;100271.94;5096872;28;811;-40
2021/03/14 11:50:59;;;;;;;;;;;;;;;26.82;23.52;100279.03;5097304;28;752;-39
2021/03/14 11:53:25;;;;;;;;;;;;;;;26.88;23.20;100266.59;5097464;28;756;-41
2021/03/14 11:55:50;;;;;;;;;;;;;;;26.81;23.42;100263.84;5093337;28;962;-41
2021/03/14 11:58:15;;;;;;;;;;;;;;;26.99;23.64;100274.19;5076854;28;1960;-41
2021/03/14 12:00:41;;;;;;;;;;;;;;;26.78;23.96;100266.94;5076981;28;817;-40
2021/03/14 12:03:06;;;;;;;;;;;;;;;26.67;24.08;100259.34;5076069;28;867;-41
2021/03/14 12:05:31;;;;;;;;;;;;;;;26.59;24.05;100254.91;5077045;28;819;-41
2021/03/14 12:07:56;;;;;;;;;;;;;;;26.62;24.21;100247.28;5077060;28;865;-41
2021/03/14 12:10:22;;;;;;;;;;;;;;;26.68;24.18;100256.47;5076702;28;835;-40
2021/03/14 12:12:48;;;;;;;;;;;;;;;26.84;23.88;100243.75;5095699;28;975;-43
2021/03/14 12:15:14;;;;;;;;;;;;;;;26.81;23.98;100244.13;5097152;28;787;-42
2021/03/14 12:17:39;;;;;;;;;;;;;;;26.78;24.04;100243.50;5096229;28;1909;-40
2021/03/14 12:20:05;;;;;;;;;;;;;;;26.84;24.10;100246.44;5097012;28;827;-42
2021/03/14 12:22:31;;;;;;;;;;;;;;;26.85;23.83;100234.63;5096493;28;772;-42
2021/03/14 12:24:56;;;;;;;;;;;;;;;26.83;23.79;100236.66;5096530;28;832;-42
2021/03/14 12:27:21;;;;;;;;;;;;;;;26.93;23.76;100231.78;5080915;28;1002;-39
2021/03/14 12:29:47;;;;;;;;;;;;;;;26.90;23.95;100234.88;5076337;28;1534;-43
2021/03/14 12:32:13;;;;;;;;;;;;;;;26.84;23.78;100227.56;5075874;28;1217;-42
2021/03/14 12:34:39;;;;;;;;;;;;;;;26.81;24.11;100233.34;5076172;28;783;-42
2021/03/14 12:37:04;;;;;;;;;;;;;;;26.82;23.93;100230.44;5076330;28;1922;-42
2021/03/14 12:39:29;;;;;;;;;;;;;;;26.74;23.87;100227.88;5076995;28;820;-43
2021/03/14 12:41:55;;;;;;;;;;;;;;;26.80;24.09;100226.25;5087792;28;1025;-42
2021/03/14 12:44:20;;;;;;;;;;;;;;;26.75;23.79;100226.84;5096563;28;764;-40
2021/03/14 12:46:46;;;;;;;;;;;;;;;26.88;24.00;100221.56;5096390;28;821;-40
2021/03/14 12:49:11;;;;;;;;;;;;;;;26.92;24.00;100227.41;5096278;28;870;-42
2021/03/14 12:51:36;;;;;;;;;;;;;;;26.84;23.91;100220.28;5096588;28;815;-40